sensor_id;sensor_type;location;lat;lon;timestamp;P1;durP1;ratioP1;P2;durP2;ratioP2
35562;SDS011;21665;40.108;18.302;2022-07-29T00:00:21;16.02;;;10.38;;
35562;SDS011;21665;40.108;18.302;2022-07-29T00:02:48;12.35;;;9.55;;
35562;SDS011;21665;40.108;18.302;2022-07-29T00:05:14;15.63;;;9.50;;
35562;SDS011;21665;40.108;18.302;2022-07-29T00:07:41;18.05;;;10.48;;
35562;SDS011;21665;40.108;18.302;2022-07-29T00:10:07;11.80;;;10.00;;
35562;SDS011;21665;40.108;18.302;2022-07-29T00:12:34;15.57;;;10.77;;
35562;SDS011;21665;40.108;18.302;2022-07-29T00:15:01;16.02;;;10.32;;
35562;SDS011;21665;40.108;18.302;2022-07-29T00:17:29;15.18;;;10.23;;
35562;SDS011;21665;40.108;18.302;2022-07-29T00:19:55;12.25;;;9.85;;
35562;SDS011;21665;40.108;18.302;2022-07-29T00:22:22;14.65;;;10.55;;
35562;SDS011;21665;40.108;18.302;2022-07-29T00:24:48;11.15;;;9.10;;
35562;SDS011;21665;40.108;18.302;2022-07-29T00:27:15;15.90;;;10.23;;
35562;SDS011;21665;40.108;18.302;2022-07-29T00:29:43;11.43;;;9.73;;
35562;SDS011;21665;40.108;18.302;2022-07-29T00:32:13;18.10;;;10.70;;
35562;SDS011;21665;40.108;18.302;2022-07-29T00:34:39;12.00;;;9.32;;
35562;SDS011;21665;40.108;18.302;2022-07-29T00:37:27;12.48;;;10.10;;
35562;SDS011;21665;40.108;18.302;2022-07-29T00:39:54;14.30;;;9.93;;
35562;SDS011;21665;40.108;18.302;2022-07-29T00:42:20;13.13;;;10.00;;
35562;SDS011;21665;40.108;18.302;2022-07-29T00:44:47;16.83;;;11.15;;
35562;SDS011;21665;40.108;18.302;2022-07-29T00:47:14;15.40;;;10.50;;
35562;SDS011;21665;40.108;18.302;2022-07-29T00:49:41;12.82;;;9.93;;
35562;SDS011;21665;40.108;18.302;2022-07-29T00:52:09;16.27;;;10.75;;
35562;SDS011;21665;40.108;18.302;2022-07-29T00:54:38;16.70;;;10.85;;
35562;SDS011;21665;40.108;18.302;2022-07-29T00:57:06;12.20;;;9.77;;
35562;SDS011;21665;40.108;18.302;2022-07-29T00:59:34;15.13;;;9.57;;
35562;SDS011;21665;40.108;18.302;2022-07-29T01:02:04;13.88;;;10.38;;
35562;SDS011;21665;40.108;18.302;2022-07-29T01:04:31;13.32;;;10.32;;
35562;SDS011;21665;40.108;18.302;2022-07-29T01:06:58;11.48;;;9.40;;
35562;SDS011;21665;40.108;18.302;2022-07-29T01:09:33;12.88;;;9.20;;
35562;SDS011;21665;40.108;18.302;2022-07-29T01:12:02;12.75;;;9.60;;
35562;SDS011;21665;40.108;18.302;2022-07-29T01:14:30;13.38;;;10.18;;
35562;SDS011;21665;40.108;18.302;2022-07-29T01:17:02;13.38;;;9.73;;
35562;SDS011;21665;40.108;18.302;2022-07-29T01:31:19;13.05;;;10.07;;
35562;SDS011;21665;40.108;18.302;2022-07-29T01:33:59;12.27;;;9.95;;
35562;SDS011;21665;40.108;18.302;2022-07-29T01:36:32;14.52;;;9.70;;
35562;SDS011;21665;40.108;18.302;2022-07-29T01:39:16;13.75;;;10.32;;
35562;SDS011;21665;40.108;18.302;2022-07-29T01:42:01;17.00;;;10.65;;
35562;SDS011;21665;40.108;18.302;2022-07-29T01:45:26;14.77;;;12.23;;
35562;SDS011;21665;40.108;18.302;2022-07-29T01:47:46;15.00;;;10.95;;
35562;SDS011;21665;40.108;18.302;2022-07-29T01:50:26;12.85;;;10.63;;
35562;SDS011;21665;40.108;18.302;2022-07-29T01:53:05;13.85;;;10.88;;
35562;SDS011;21665;40.108;18.302;2022-07-29T01:55:40;13.55;;;10.65;;
35562;SDS011;21665;40.108;18.302;2022-07-29T01:58:10;15.88;;;10.25;;
35562;SDS011;21665;40.108;18.302;2022-07-29T02:00:39;17.92;;;11.40;;
35562;SDS011;21665;40.108;18.302;2022-07-29T02:03:09;17.15;;;11.90;;
35562;SDS011;21665;40.108;18.302;2022-07-29T02:05:38;16.50;;;11.57;;
35562;SDS011;21665;40.108;18.302;2022-07-29T02:08:08;14.57;;;10.65;;
35562;SDS011;21665;40.108;18.302;2022-07-29T02:10:36;17.58;;;11.85;;
35562;SDS011;21665;40.108;18.302;2022-07-29T02:13:06;11.85;;;10.52;;
35562;SDS011;21665;40.108;18.302;2022-07-29T02:15:35;15.55;;;11.50;;
35562;SDS011;21665;40.108;18.302;2022-07-29T02:18:07;14.35;;;11.15;;
35562;SDS011;21665;40.108;18.302;2022-07-29T02:20:46;15.93;;;11.98;;
35562;SDS011;21665;40.108;18.302;2022-07-29T02:23:15;15.85;;;11.27;;
35562;SDS011;21665;40.108;18.302;2022-07-29T02:25:47;20.38;;;12.45;;
35562;SDS011;21665;40.108;18.302;2022-07-29T02:28:17;17.13;;;12.77;;
35562;SDS011;21665;40.108;18.302;2022-07-29T02:30:45;17.50;;;12.32;;
35562;SDS011;21665;40.108;18.302;2022-07-29T02:33:14;16.15;;;12.40;;
35562;SDS011;21665;40.108;18.302;2022-07-29T02:35:43;18.25;;;12.90;;
35562;SDS011;21665;40.108;18.302;2022-07-29T02:38:12;20.30;;;12.13;;
35562;SDS011;21665;40.108;18.302;2022-07-29T02:40:59;17.88;;;12.18;;
35562;SDS011;21665;40.108;18.302;2022-07-29T02:43:31;18.83;;;13.27;;
35562;SDS011;21665;40.108;18.302;2022-07-29T02:46:07;20.15;;;13.48;;
35562;SDS011;21665;40.108;18.302;2022-07-29T02:48:38;14.70;;;12.30;;
35562;SDS011;21665;40.108;18.302;2022-07-29T02:51:31;15.30;;;12.25;;
35562;SDS011;21665;40.108;18.302;2022-07-29T02:54:07;17.10;;;12.18;;
35562;SDS011;21665;40.108;18.302;2022-07-29T02:56:39;18.38;;;12.50;;
35562;SDS011;21665;40.108;18.302;2022-07-29T02:59:09;16.00;;;13.43;;
35562;SDS011;21665;40.108;18.302;2022-07-29T03:01:39;19.85;;;12.90;;
35562;SDS011;21665;40.108;18.302;2022-07-29T03:04:09;16.42;;;13.02;;
35562;SDS011;21665;40.108;18.302;2022-07-29T03:06:39;16.60;;;12.88;;
35562;SDS011;21665;40.108;18.302;2022-07-29T03:09:10;17.08;;;11.90;;
35562;SDS011;21665;40.108;18.302;2022-07-29T03:11:38;15.43;;;13.10;;
35562;SDS011;21665;40.108;18.302;2022-07-29T03:14:06;16.08;;;13.18;;
35562;SDS011;21665;40.108;18.302;2022-07-29T03:16:33;17.70;;;13.10;;
35562;SDS011;21665;40.108;18.302;2022-07-29T03:19:02;17.90;;;12.85;;
35562;SDS011;21665;40.108;18.302;2022-07-29T03:21:33;17.55;;;12.38;;
35562;SDS011;21665;40.108;18.302;2022-07-29T03:24:00;22.02;;;13.38;;
35562;SDS011;21665;40.108;18.302;2022-07-29T03:26:26;19.40;;;12.70;;
35562;SDS011;21665;40.108;18.302;2022-07-29T03:28:52;22.85;;;13.65;;
35562;SDS011;21665;40.108;18.302;2022-07-29T03:31:23;19.73;;;14.18;;
35562;SDS011;21665;40.108;18.302;2022-07-29T03:33:53;21.33;;;13.85;;
35562;SDS011;21665;40.108;18.302;2022-07-29T03:36:26;20.02;;;13.77;;
35562;SDS011;21665;40.108;18.302;2022-07-29T03:38:52;18.20;;;13.25;;
35562;SDS011;21665;40.108;18.302;2022-07-29T03:41:20;17.60;;;13.07;;
35562;SDS011;21665;40.108;18.302;2022-07-29T03:43:50;18.83;;;12.85;;
35562;SDS011;21665;40.108;18.302;2022-07-29T03:46:20;17.42;;;11.82;;
35562;SDS011;21665;40.108;18.302;2022-07-29T03:48:50;16.20;;;11.43;;
35562;SDS011;21665;40.108;18.302;2022-07-29T03:51:21;17.00;;;12.50;;
35562;SDS011;21665;40.108;18.302;2022-07-29T03:53:48;17.10;;;12.57;;
35562;SDS011;21665;40.108;18.302;2022-07-29T03:56:15;16.98;;;11.18;;
35562;SDS011;21665;40.108;18.302;2022-07-29T03:58:49;16.67;;;12.40;;
35562;SDS011;21665;40.108;18.302;2022-07-29T04:01:17;16.42;;;12.10;;
35562;SDS011;21665;40.108;18.302;2022-07-29T04:03:44;15.75;;;12.05;;
35562;SDS011;21665;40.108;18.302;2022-07-29T04:06:11;17.88;;;11.30;;
35562;SDS011;21665;40.108;18.302;2022-07-29T04:08:38;18.80;;;11.07;;
35562;SDS011;21665;40.108;18.302;2022-07-29T04:11:05;18.85;;;11.52;;
35562;SDS011;21665;40.108;18.302;2022-07-29T04:13:32;17.02;;;11.40;;
35562;SDS011;21665;40.108;18.302;2022-07-29T04:16:03;18.40;;;10.82;;
35562;SDS011;21665;40.108;18.302;2022-07-29T04:18:32;20.75;;;11.00;;
35562;SDS011;21665;40.108;18.302;2022-07-29T04:20:59;16.60;;;10.88;;
35562;SDS011;21665;40.108;18.302;2022-07-29T04:23:27;19.33;;;10.68;;
35562;SDS011;21665;40.108;18.302;2022-07-29T04:25:58;24.20;;;11.43;;
35562;SDS011;21665;40.108;18.302;2022-07-29T04:28:26;17.77;;;10.18;;
35562;SDS011;21665;40.108;18.302;2022-07-29T04:30:56;16.30;;;10.43;;
35562;SDS011;21665;40.108;18.302;2022-07-29T04:33:26;14.50;;;10.40;;
35562;SDS011;21665;40.108;18.302;2022-07-29T04:35:52;16.67;;;11.23;;
35562;SDS011;21665;40.108;18.302;2022-07-29T04:38:18;15.27;;;10.52;;
35562;SDS011;21665;40.108;18.302;2022-07-29T04:40:45;19.23;;;10.70;;
35562;SDS011;21665;40.108;18.302;2022-07-29T04:43:11;14.80;;;10.68;;
35562;SDS011;21665;40.108;18.302;2022-07-29T04:45:38;15.48;;;9.52;;
35562;SDS011;21665;40.108;18.302;2022-07-29T04:48:08;10.35;;;8.40;;
35562;SDS011;21665;40.108;18.302;2022-07-29T04:50:37;13.68;;;8.90;;
35562;SDS011;21665;40.108;18.302;2022-07-29T04:53:06;11.80;;;8.52;;
35562;SDS011;21665;40.108;18.302;2022-07-29T04:55:37;12.90;;;8.15;;
35562;SDS011;21665;40.108;18.302;2022-07-29T04:58:21;11.50;;;7.32;;
35562;SDS011;21665;40.108;18.302;2022-07-29T05:00:54;10.02;;;7.43;;
35562;SDS011;21665;40.108;18.302;2022-07-29T05:03:25;9.00;;;6.20;;
35562;SDS011;21665;40.108;18.302;2022-07-29T05:05:52;9.07;;;7.43;;
35562;SDS011;21665;40.108;18.302;2022-07-29T05:08:19;7.60;;;6.80;;
35562;SDS011;21665;40.108;18.302;2022-07-29T05:10:46;11.55;;;6.93;;
35562;SDS011;21665;40.108;18.302;2022-07-29T05:13:12;9.77;;;6.72;;
35562;SDS011;21665;40.108;18.302;2022-07-29T05:15:39;9.30;;;6.30;;
35562;SDS011;21665;40.108;18.302;2022-07-29T05:18:06;9.20;;;6.13;;
35562;SDS011;21665;40.108;18.302;2022-07-29T05:20:32;8.55;;;6.57;;
35562;SDS011;21665;40.108;18.302;2022-07-29T05:23:00;11.32;;;6.38;;
35562;SDS011;21665;40.108;18.302;2022-07-29T05:25:28;9.65;;;6.57;;
35562;SDS011;21665;40.108;18.302;2022-07-29T05:27:55;11.15;;;6.25;;
35562;SDS011;21665;40.108;18.302;2022-07-29T05:30:23;7.35;;;5.60;;
35562;SDS011;21665;40.108;18.302;2022-07-29T05:32:50;8.68;;;5.60;;
35562;SDS011;21665;40.108;18.302;2022-07-29T05:35:17;6.28;;;4.93;;
35562;SDS011;21665;40.108;18.302;2022-07-29T05:37:44;9.35;;;5.38;;
35562;SDS011;21665;40.108;18.302;2022-07-29T05:40:10;7.15;;;5.68;;
35562;SDS011;21665;40.108;18.302;2022-07-29T05:42:37;7.32;;;5.10;;
35562;SDS011;21665;40.108;18.302;2022-07-29T05:45:03;6.72;;;5.47;;
35562;SDS011;21665;40.108;18.302;2022-07-29T05:47:31;7.57;;;5.55;;
35562;SDS011;21665;40.108;18.302;2022-07-29T05:50:13;7.45;;;5.88;;
35562;SDS011;21665;40.108;18.302;2022-07-29T05:52:40;11.13;;;5.68;;
35562;SDS011;21665;40.108;18.302;2022-07-29T05:55:06;10.27;;;5.35;;
35562;SDS011;21665;40.108;18.302;2022-07-29T05:57:37;6.45;;;5.15;;
35562;SDS011;21665;40.108;18.302;2022-07-29T06:00:03;7.93;;;5.25;;
35562;SDS011;21665;40.108;18.302;2022-07-29T06:02:37;6.20;;;5.30;;
35562;SDS011;21665;40.108;18.302;2022-07-29T06:05:04;7.22;;;5.80;;
35562;SDS011;21665;40.108;18.302;2022-07-29T06:07:31;6.53;;;5.38;;
35562;SDS011;21665;40.108;18.302;2022-07-29T06:09:58;7.45;;;5.43;;
35562;SDS011;21665;40.108;18.302;2022-07-29T06:12:24;7.97;;;5.97;;
35562;SDS011;21665;40.108;18.302;2022-07-29T06:14:51;5.90;;;5.30;;
35562;SDS011;21665;40.108;18.302;2022-07-29T06:17:17;6.05;;;5.43;;
35562;SDS011;21665;40.108;18.302;2022-07-29T06:19:44;6.43;;;5.30;;
35562;SDS011;21665;40.108;18.302;2022-07-29T06:22:10;6.65;;;5.18;;
35562;SDS011;21665;40.108;18.302;2022-07-29T06:24:36;7.05;;;6.35;;
35562;SDS011;21665;40.108;18.302;2022-07-29T06:27:07;8.00;;;7.10;;
35562;SDS011;21665;40.108;18.302;2022-07-29T06:29:35;7.50;;;6.80;;
35562;SDS011;21665;40.108;18.302;2022-07-29T06:32:02;9.10;;;6.40;;
35562;SDS011;21665;40.108;18.302;2022-07-29T06:34:29;7.05;;;6.45;;
35562;SDS011;21665;40.108;18.302;2022-07-29T06:36:56;8.32;;;7.40;;
35562;SDS011;21665;40.108;18.302;2022-07-29T06:39:22;7.93;;;6.80;;
35562;SDS011;21665;40.108;18.302;2022-07-29T06:41:49;9.80;;;8.80;;
35562;SDS011;21665;40.108;18.302;2022-07-29T06:44:16;19.65;;;10.40;;
35562;SDS011;21665;40.108;18.302;2022-07-29T06:46:43;11.35;;;10.40;;
35562;SDS011;21665;40.108;18.302;2022-07-29T06:49:10;11.38;;;10.68;;
35562;SDS011;21665;40.108;18.302;2022-07-29T06:51:38;12.20;;;11.40;;
35562;SDS011;21665;40.108;18.302;2022-07-29T06:54:07;12.10;;;11.23;;
35562;SDS011;21665;40.108;18.302;2022-07-29T06:56:34;13.05;;;11.82;;
35562;SDS011;21665;40.108;18.302;2022-07-29T06:59:03;10.85;;;9.93;;
35562;SDS011;21665;40.108;18.302;2022-07-29T07:01:31;11.25;;;10.10;;
35562;SDS011;21665;40.108;18.302;2022-07-29T07:04:00;10.70;;;9.55;;
35562;SDS011;21665;40.108;18.302;2022-07-29T07:06:27;10.70;;;9.88;;
35562;SDS011;21665;40.108;18.302;2022-07-29T07:08:54;12.27;;;11.40;;
35562;SDS011;21665;40.108;18.302;2022-07-29T07:11:20;12.90;;;11.80;;
35562;SDS011;21665;40.108;18.302;2022-07-29T07:13:50;12.60;;;11.60;;
35562;SDS011;21665;40.108;18.302;2022-07-29T07:16:19;11.60;;;10.43;;
35562;SDS011;21665;40.108;18.302;2022-07-29T07:18:46;10.57;;;9.98;;
35562;SDS011;21665;40.108;18.302;2022-07-29T07:21:12;11.13;;;10.43;;
35562;SDS011;21665;40.108;18.302;2022-07-29T07:23:45;11.55;;;10.75;;
35562;SDS011;21665;40.108;18.302;2022-07-29T07:26:14;11.18;;;10.25;;
35562;SDS011;21665;40.108;18.302;2022-07-29T07:28:40;10.63;;;9.80;;
35562;SDS011;21665;40.108;18.302;2022-07-29T07:31:07;10.90;;;10.20;;
35562;SDS011;21665;40.108;18.302;2022-07-29T07:33:34;10.52;;;9.73;;
35562;SDS011;21665;40.108;18.302;2022-07-29T07:36:01;10.50;;;9.80;;
35562;SDS011;21665;40.108;18.302;2022-07-29T07:38:27;10.68;;;9.77;;
35562;SDS011;21665;40.108;18.302;2022-07-29T07:40:54;10.75;;;10.02;;
35562;SDS011;21665;40.108;18.302;2022-07-29T07:43:21;11.27;;;10.57;;
35562;SDS011;21665;40.108;18.302;2022-07-29T07:45:50;13.07;;;11.75;;
35562;SDS011;21665;40.108;18.302;2022-07-29T07:48:22;10.80;;;9.85;;
35562;SDS011;21665;40.108;18.302;2022-07-29T07:50:49;10.82;;;10.02;;
35562;SDS011;21665;40.108;18.302;2022-07-29T07:53:16;10.23;;;9.50;;
35562;SDS011;21665;40.108;18.302;2022-07-29T07:55:42;11.60;;;10.60;;
35562;SDS011;21665;40.108;18.302;2022-07-29T07:58:09;11.80;;;10.70;;
35562;SDS011;21665;40.108;18.302;2022-07-29T08:00:35;10.43;;;9.65;;
35562;SDS011;21665;40.108;18.302;2022-07-29T08:03:02;11.52;;;10.63;;
35562;SDS011;21665;40.108;18.302;2022-07-29T08:05:29;11.48;;;10.68;;
35562;SDS011;21665;40.108;18.302;2022-07-29T08:07:55;10.98;;;10.27;;
35562;SDS011;21665;40.108;18.302;2022-07-29T08:10:21;11.30;;;10.57;;
35562;SDS011;21665;40.108;18.302;2022-07-29T08:13:07;10.77;;;9.98;;
35562;SDS011;21665;40.108;18.302;2022-07-29T08:15:34;10.95;;;10.00;;
35562;SDS011;21665;40.108;18.302;2022-07-29T08:18:01;11.27;;;10.30;;
35562;SDS011;21665;40.108;18.302;2022-07-29T08:20:28;10.60;;;9.70;;
35562;SDS011;21665;40.108;18.302;2022-07-29T08:22:56;11.18;;;10.38;;
35562;SDS011;21665;40.108;18.302;2022-07-29T08:25:26;10.43;;;9.55;;
35562;SDS011;21665;40.108;18.302;2022-07-29T08:27:58;10.40;;;9.70;;
35562;SDS011;21665;40.108;18.302;2022-07-29T08:30:25;9.95;;;9.25;;
35562;SDS011;21665;40.108;18.302;2022-07-29T08:32:51;9.50;;;8.65;;
35562;SDS011;21665;40.108;18.302;2022-07-29T08:35:21;10.85;;;10.05;;
35562;SDS011;21665;40.108;18.302;2022-07-29T08:37:49;11.77;;;10.82;;
35562;SDS011;21665;40.108;18.302;2022-07-29T08:40:16;11.27;;;10.48;;
35562;SDS011;21665;40.108;18.302;2022-07-29T08:42:43;11.88;;;11.07;;
35562;SDS011;21665;40.108;18.302;2022-07-29T08:45:09;10.68;;;9.88;;
35562;SDS011;21665;40.108;18.302;2022-07-29T08:47:36;11.50;;;10.70;;
35562;SDS011;21665;40.108;18.302;2022-07-29T08:50:05;12.02;;;11.30;;
35562;SDS011;21665;40.108;18.302;2022-07-29T08:52:34;10.60;;;9.73;;
35562;SDS011;21665;40.108;18.302;2022-07-29T08:55:03;11.48;;;10.60;;
35562;SDS011;21665;40.108;18.302;2022-07-29T08:57:31;11.55;;;10.68;;
35562;SDS011;21665;40.108;18.302;2022-07-29T09:00:00;11.20;;;10.40;;
35562;SDS011;21665;40.108;18.302;2022-07-29T09:02:29;11.90;;;11.18;;
35562;SDS011;21665;40.108;18.302;2022-07-29T09:05:02;11.63;;;10.93;;
35562;SDS011;21665;40.108;18.302;2022-07-29T09:07:30;12.13;;;11.43;;
35562;SDS011;21665;40.108;18.302;2022-07-29T09:09:58;11.77;;;10.98;;
35562;SDS011;21665;40.108;18.302;2022-07-29T09:12:26;11.30;;;10.60;;
35562;SDS011;21665;40.108;18.302;2022-07-29T09:14:54;11.77;;;10.88;;
35562;SDS011;21665;40.108;18.302;2022-07-29T09:17:38;11.77;;;11.00;;
35562;SDS011;21665;40.108;18.302;2022-07-29T09:20:15;12.10;;;11.07;;
35562;SDS011;21665;40.108;18.302;2022-07-29T09:22:44;11.80;;;10.93;;
35562;SDS011;21665;40.108;18.302;2022-07-29T09:25:16;11.85;;;11.15;;
35562;SDS011;21665;40.108;18.302;2022-07-29T09:28:05;11.68;;;10.98;;
35562;SDS011;21665;40.108;18.302;2022-07-29T09:30:32;12.60;;;11.70;;
35562;SDS011;21665;40.108;18.302;2022-07-29T09:33:00;12.85;;;11.85;;
35562;SDS011;21665;40.108;18.302;2022-07-29T09:35:29;12.70;;;11.75;;
35562;SDS011;21665;40.108;18.302;2022-07-29T09:37:56;11.35;;;10.65;;
35562;SDS011;21665;40.108;18.302;2022-07-29T09:40:24;12.35;;;11.35;;
35562;SDS011;21665;40.108;18.302;2022-07-29T09:42:52;12.57;;;11.38;;
35562;SDS011;21665;40.108;18.302;2022-07-29T09:45:34;12.00;;;11.15;;
35562;SDS011;21665;40.108;18.302;2022-07-29T09:48:18;11.88;;;10.98;;
35562;SDS011;21665;40.108;18.302;2022-07-29T09:50:46;11.60;;;10.73;;
35562;SDS011;21665;40.108;18.302;2022-07-29T09:53:32;12.20;;;10.50;;
35562;SDS011;21665;40.108;18.302;2022-07-29T09:58:26;11.63;;;10.73;;
35562;SDS011;21665;40.108;18.302;2022-07-29T10:00:54;11.00;;;10.10;;
35562;SDS011;21665;40.108;18.302;2022-07-29T10:03:21;10.00;;;9.40;;
35562;SDS011;21665;40.108;18.302;2022-07-29T10:06:09;11.40;;;10.68;;
35562;SDS011;21665;40.108;18.302;2022-07-29T10:08:39;11.52;;;10.73;;
35562;SDS011;21665;40.108;18.302;2022-07-29T10:11:12;11.50;;;10.70;;
35562;SDS011;21665;40.108;18.302;2022-07-29T10:13:41;12.45;;;10.98;;
35562;SDS011;21665;40.108;18.302;2022-07-29T10:16:08;15.65;;;10.63;;
35562;SDS011;21665;40.108;18.302;2022-07-29T10:18:40;11.02;;;10.25;;
35562;SDS011;21665;40.108;18.302;2022-07-29T10:21:08;11.23;;;10.23;;
35562;SDS011;21665;40.108;18.302;2022-07-29T10:23:35;12.73;;;11.15;;
35562;SDS011;21665;40.108;18.302;2022-07-29T10:26:02;11.50;;;10.45;;
35562;SDS011;21665;40.108;18.302;2022-07-29T10:28:32;11.68;;;10.88;;
35562;SDS011;21665;40.108;18.302;2022-07-29T10:31:01;11.98;;;11.07;;
35562;SDS011;21665;40.108;18.302;2022-07-29T10:42:21;11.73;;;10.93;;
35562;SDS011;21665;40.108;18.302;2022-07-29T10:47:24;12.18;;;11.20;;
35562;SDS011;21665;40.108;18.302;2022-07-29T10:49:56;12.23;;;11.52;;
35562;SDS011;21665;40.108;18.302;2022-07-29T10:52:26;12.25;;;11.45;;
35562;SDS011;21665;40.108;18.302;2022-07-29T10:55:37;12.30;;;11.52;;
35562;SDS011;21665;40.108;18.302;2022-07-29T10:58:17;12.15;;;11.35;;
35562;SDS011;21665;40.108;18.302;2022-07-29T11:00:47;13.00;;;11.88;;
35562;SDS011;21665;40.108;18.302;2022-07-29T11:04:00;12.32;;;11.73;;
35562;SDS011;21665;40.108;18.302;2022-07-29T11:06:10;12.63;;;11.73;;
35562;SDS011;21665;40.108;18.302;2022-07-29T11:08:39;13.00;;;12.13;;
35562;SDS011;21665;40.108;18.302;2022-07-29T11:16:17;12.80;;;11.90;;
35562;SDS011;21665;40.108;18.302;2022-07-29T11:21:40;13.15;;;12.25;;
35562;SDS011;21665;40.108;18.302;2022-07-29T11:24:32;12.55;;;11.75;;
35562;SDS011;21665;40.108;18.302;2022-07-29T11:29:52;13.57;;;12.50;;
35562;SDS011;21665;40.108;18.302;2022-07-29T11:32:22;13.43;;;12.40;;
35562;SDS011;21665;40.108;18.302;2022-07-29T11:35:12;13.65;;;12.48;;
35562;SDS011;21665;40.108;18.302;2022-07-29T11:37:37;13.30;;;12.23;;
35562;SDS011;21665;40.108;18.302;2022-07-29T11:47:53;12.20;;;11.40;;
35562;SDS011;21665;40.108;18.302;2022-07-29T11:50:30;12.98;;;12.18;;
35562;SDS011;21665;40.108;18.302;2022-07-29T11:52:59;13.35;;;12.15;;
35562;SDS011;21665;40.108;18.302;2022-07-29T11:55:27;12.90;;;12.10;;
35562;SDS011;21665;40.108;18.302;2022-07-29T11:57:54;13.65;;;12.77;;
35562;SDS011;21665;40.108;18.302;2022-07-29T12:00:35;13.50;;;12.52;;
35562;SDS011;21665;40.108;18.302;2022-07-29T12:03:08;15.02;;;13.68;;
35562;SDS011;21665;40.108;18.302;2022-07-29T12:08:11;13.20;;;12.40;;
35562;SDS011;21665;40.108;18.302;2022-07-29T12:10:38;13.40;;;12.38;;
35562;SDS011;21665;40.108;18.302;2022-07-29T12:13:06;12.98;;;12.05;;
35562;SDS011;21665;40.108;18.302;2022-07-29T12:15:33;13.13;;;12.20;;
35562;SDS011;21665;40.108;18.302;2022-07-29T12:18:09;13.77;;;12.90;;
35562;SDS011;21665;40.108;18.302;2022-07-29T12:20:36;13.55;;;12.75;;
35562;SDS011;21665;40.108;18.302;2022-07-29T12:23:09;13.82;;;12.68;;
35562;SDS011;21665;40.108;18.302;2022-07-29T12:25:40;13.80;;;12.60;;
35562;SDS011;21665;40.108;18.302;2022-07-29T12:28:12;13.57;;;12.60;;
35562;SDS011;21665;40.108;18.302;2022-07-29T12:30:45;13.43;;;12.63;;
35562;SDS011;21665;40.108;18.302;2022-07-29T12:33:18;14.30;;;13.20;;
35562;SDS011;21665;40.108;18.302;2022-07-29T12:35:57;13.50;;;12.60;;
35562;SDS011;21665;40.108;18.302;2022-07-29T12:38:25;13.87;;;13.07;;
35562;SDS011;21665;40.108;18.302;2022-07-29T13:53:38;12.73;;;11.98;;
35562;SDS011;21665;40.108;18.302;2022-07-29T13:56:04;13.10;;;12.20;;
35562;SDS011;21665;40.108;18.302;2022-07-29T13:58:34;12.32;;;11.68;;
35562;SDS011;21665;40.108;18.302;2022-07-29T14:01:00;12.75;;;11.90;;
35562;SDS011;21665;40.108;18.302;2022-07-29T14:03:26;12.70;;;11.90;;
35562;SDS011;21665;40.108;18.302;2022-07-29T14:05:53;12.80;;;11.93;;
35562;SDS011;21665;40.108;18.302;2022-07-29T14:08:21;13.02;;;12.13;;
35562;SDS011;21665;40.108;18.302;2022-07-29T14:10:47;12.93;;;12.13;;
35562;SDS011;21665;40.108;18.302;2022-07-29T14:13:14;12.88;;;11.98;;
35562;SDS011;21665;40.108;18.302;2022-07-29T14:15:41;12.43;;;11.52;;
35562;SDS011;21665;40.108;18.302;2022-07-29T14:18:08;12.60;;;11.85;;
35562;SDS011;21665;40.108;18.302;2022-07-29T14:20:34;12.05;;;11.35;;
35562;SDS011;21665;40.108;18.302;2022-07-29T14:23:01;12.27;;;11.40;;
35562;SDS011;21665;40.108;18.302;2022-07-29T14:25:27;12.75;;;11.95;;
35562;SDS011;21665;40.108;18.302;2022-07-29T14:27:53;12.32;;;11.35;;
35562;SDS011;21665;40.108;18.302;2022-07-29T14:30:20;11.82;;;10.93;;
35562;SDS011;21665;40.108;18.302;2022-07-29T14:32:46;11.70;;;11.10;;
35562;SDS011;21665;40.108;18.302;2022-07-29T14:35:12;12.43;;;11.63;;
35562;SDS011;21665;40.108;18.302;2022-07-29T14:37:41;12.00;;;11.13;;
35562;SDS011;21665;40.108;18.302;2022-07-29T14:40:08;11.43;;;10.73;;
35562;SDS011;21665;40.108;18.302;2022-07-29T14:42:35;12.05;;;11.15;;
35562;SDS011;21665;40.108;18.302;2022-07-29T14:45:03;11.20;;;10.50;;
35562;SDS011;21665;40.108;18.302;2022-07-29T14:47:31;12.35;;;11.55;;
35562;SDS011;21665;40.108;18.302;2022-07-29T14:49:58;12.27;;;11.48;;
35562;SDS011;21665;40.108;18.302;2022-07-29T14:52:24;12.25;;;11.45;;
35562;SDS011;21665;40.108;18.302;2022-07-29T14:54:51;12.55;;;11.77;;
35562;SDS011;21665;40.108;18.302;2022-07-29T14:57:17;11.70;;;10.77;;
35562;SDS011;21665;40.108;18.302;2022-07-29T14:59:43;10.95;;;10.32;;
35562;SDS011;21665;40.108;18.302;2022-07-29T15:02:09;12.15;;;11.27;;
35562;SDS011;21665;40.108;18.302;2022-07-29T15:04:36;11.15;;;10.15;;
35562;SDS011;21665;40.108;18.302;2022-07-29T15:07:04;11.48;;;10.85;;
35562;SDS011;21665;40.108;18.302;2022-07-29T15:09:31;11.23;;;10.52;;
35562;SDS011;21665;40.108;18.302;2022-07-29T15:11:57;11.57;;;10.77;;
35562;SDS011;21665;40.108;18.302;2022-07-29T15:14:38;10.82;;;9.88;;
35562;SDS011;21665;40.108;18.302;2022-07-29T15:17:07;10.85;;;10.07;;
35562;SDS011;21665;40.108;18.302;2022-07-29T15:19:34;11.00;;;10.15;;
35562;SDS011;21665;40.108;18.302;2022-07-29T15:22:01;10.65;;;9.90;;
35562;SDS011;21665;40.108;18.302;2022-07-29T15:24:27;10.45;;;9.85;;
35562;SDS011;21665;40.108;18.302;2022-07-29T15:26:54;10.68;;;9.98;;
35562;SDS011;21665;40.108;18.302;2022-07-29T15:29:20;10.65;;;10.02;;
35562;SDS011;21665;40.108;18.302;2022-07-29T15:31:47;10.52;;;9.73;;
35562;SDS011;21665;40.108;18.302;2022-07-29T15:34:13;11.35;;;10.43;;
35562;SDS011;21665;40.108;18.302;2022-07-29T15:36:39;10.48;;;9.88;;
35562;SDS011;21665;40.108;18.302;2022-07-29T15:39:06;10.38;;;9.68;;
35562;SDS011;21665;40.108;18.302;2022-07-29T15:41:32;10.43;;;9.82;;
35562;SDS011;21665;40.108;18.302;2022-07-29T15:44:00;10.52;;;9.82;;
35562;SDS011;21665;40.108;18.302;2022-07-29T15:46:26;10.00;;;9.40;;
35562;SDS011;21665;40.108;18.302;2022-07-29T15:49:11;9.65;;;9.05;;
35562;SDS011;21665;40.108;18.302;2022-07-29T15:51:38;9.95;;;9.35;;
35562;SDS011;21665;40.108;18.302;2022-07-29T15:54:04;9.90;;;9.30;;
35562;SDS011;21665;40.108;18.302;2022-07-29T15:56:31;9.65;;;9.00;;
35562;SDS011;21665;40.108;18.302;2022-07-29T15:58:57;9.80;;;9.07;;
35562;SDS011;21665;40.108;18.302;2022-07-29T16:01:23;10.38;;;9.38;;
35562;SDS011;21665;40.108;18.302;2022-07-29T16:03:56;10.35;;;9.57;;
35562;SDS011;21665;40.108;18.302;2022-07-29T16:06:36;8.57;;;8.02;;
35562;SDS011;21665;40.108;18.302;2022-07-29T16:09:09;8.63;;;7.85;;
35562;SDS011;21665;40.108;18.302;2022-07-29T16:11:44;8.32;;;7.68;;
35562;SDS011;21665;40.108;18.302;2022-07-29T16:14:13;8.88;;;8.10;;
35562;SDS011;21665;40.108;18.302;2022-07-29T16:16:42;8.48;;;7.80;;
35562;SDS011;21665;40.108;18.302;2022-07-29T16:19:09;8.07;;;7.32;;
35562;SDS011;21665;40.108;18.302;2022-07-29T16:21:36;8.23;;;7.43;;
35562;SDS011;21665;40.108;18.302;2022-07-29T16:24:04;8.18;;;7.55;;
35562;SDS011;21665;40.108;18.302;2022-07-29T16:26:31;7.35;;;6.95;;
35562;SDS011;21665;40.108;18.302;2022-07-29T16:28:58;7.55;;;6.70;;